sensor_id;sensor_type;location;lat;lon;timestamp;P1;durP1;ratioP1;P2;durP2;ratioP2
74908;SDS011;63468;52.058;4.824;2023-03-31T00:00:08;19.88;;;6.00;;
74908;SDS011;63468;52.058;4.824;2023-03-31T00:02:36;17.45;;;7.10;;
74908;SDS011;63468;52.058;4.824;2023-03-31T00:05:05;17.98;;;5.55;;
74908;SDS011;63468;52.058;4.824;2023-03-31T00:07:31;14.50;;;5.50;;
74908;SDS011;63468;52.058;4.824;2023-03-31T00:09:57;20.33;;;6.05;;
74908;SDS011;63468;52.058;4.824;2023-03-31T00:12:25;22.48;;;6.68;;
74908;SDS011;63468;52.058;4.824;2023-03-31T00:14:51;17.58;;;5.25;;
74908;SDS011;63468;52.058;4.824;2023-03-31T00:17:16;16.67;;;5.90;;
74908;SDS011;63468;52.058;4.824;2023-03-31T00:19:42;19.27;;;5.55;;
74908;SDS011;63468;52.058;4.824;2023-03-31T00:22:08;23.05;;;5.57;;
74908;SDS011;63468;52.058;4.824;2023-03-31T00:24:33;18.48;;;6.22;;
74908;SDS011;63468;52.058;4.824;2023-03-31T00:27:00;22.13;;;5.55;;
74908;SDS011;63468;52.058;4.824;2023-03-31T00:29:26;19.67;;;6.68;;
74908;SDS011;63468;52.058;4.824;2023-03-31T00:31:52;14.15;;;5.43;;
74908;SDS011;63468;52.058;4.824;2023-03-31T00:34:17;14.23;;;5.82;;
74908;SDS011;63468;52.058;4.824;2023-03-31T00:36:42;11.80;;;6.30;;
74908;SDS011;63468;52.058;4.824;2023-03-31T00:39:15;17.13;;;6.88;;
74908;SDS011;63468;52.058;4.824;2023-03-31T00:41:42;19.35;;;6.50;;
74908;SDS011;63468;52.058;4.824;2023-03-31T00:44:12;21.25;;;6.95;;
74908;SDS011;63468;52.058;4.824;2023-03-31T00:46:48;19.95;;;8.00;;
74908;SDS011;63468;52.058;4.824;2023-03-31T00:49:40;15.88;;;7.45;;
74908;SDS011;63468;52.058;4.824;2023-03-31T00:54:44;20.55;;;6.32;;
74908;SDS011;63468;52.058;4.824;2023-03-31T00:57:12;16.17;;;5.97;;
74908;SDS011;63468;52.058;4.824;2023-03-31T00:59:42;18.42;;;6.55;;
74908;SDS011;63468;52.058;4.824;2023-03-31T01:04:44;15.00;;;5.88;;
74908;SDS011;63468;52.058;4.824;2023-03-31T01:12:12;20.63;;;7.20;;
74908;SDS011;63468;52.058;4.824;2023-03-31T01:14:38;18.30;;;6.13;;
74908;SDS011;63468;52.058;4.824;2023-03-31T01:17:03;15.20;;;6.20;;
74908;SDS011;63468;52.058;4.824;2023-03-31T01:20:16;15.05;;;7.10;;
74908;SDS011;63468;52.058;4.824;2023-03-31T01:22:28;13.13;;;5.63;;
74908;SDS011;63468;52.058;4.824;2023-03-31T01:25:29;15.60;;;6.43;;
74908;SDS011;63468;52.058;4.824;2023-03-31T01:41:41;17.83;;;8.20;;
74908;SDS011;63468;52.058;4.824;2023-03-31T01:47:08;20.38;;;7.57;;
74908;SDS011;63468;52.058;4.824;2023-03-31T01:52:11;18.08;;;7.68;;
74908;SDS011;63468;52.058;4.824;2023-03-31T01:55:27;17.65;;;8.25;;
74908;SDS011;63468;52.058;4.824;2023-03-31T01:57:56;21.08;;;8.23;;
74908;SDS011;63468;52.058;4.824;2023-03-31T02:00:27;15.32;;;7.15;;
74908;SDS011;63468;52.058;4.824;2023-03-31T02:02:58;15.02;;;7.38;;
74908;SDS011;63468;52.058;4.824;2023-03-31T02:05:37;24.20;;;9.55;;
74908;SDS011;63468;52.058;4.824;2023-03-31T02:08:08;19.77;;;9.18;;
74908;SDS011;63468;52.058;4.824;2023-03-31T02:10:36;16.75;;;8.32;;
74908;SDS011;63468;52.058;4.824;2023-03-31T02:13:03;18.38;;;7.93;;
74908;SDS011;63468;52.058;4.824;2023-03-31T02:15:30;17.63;;;8.27;;
74908;SDS011;63468;52.058;4.824;2023-03-31T02:17:59;19.73;;;8.05;;
74908;SDS011;63468;52.058;4.824;2023-03-31T02:20:27;18.15;;;8.88;;
74908;SDS011;63468;52.058;4.824;2023-03-31T02:22:54;16.67;;;7.80;;
74908;SDS011;63468;52.058;4.824;2023-03-31T02:25:21;20.65;;;8.75;;
74908;SDS011;63468;52.058;4.824;2023-03-31T02:27:50;20.48;;;7.88;;
74908;SDS011;63468;52.058;4.824;2023-03-31T02:30:17;13.52;;;7.07;;
74908;SDS011;63468;52.058;4.824;2023-03-31T02:32:43;13.90;;;6.43;;
74908;SDS011;63468;52.058;4.824;2023-03-31T02:35:19;13.63;;;6.55;;
74908;SDS011;63468;52.058;4.824;2023-03-31T02:37:46;12.25;;;7.05;;
74908;SDS011;63468;52.058;4.824;2023-03-31T02:40:15;11.63;;;7.07;;
74908;SDS011;63468;52.058;4.824;2023-03-31T02:42:42;14.05;;;7.78;;
74908;SDS011;63468;52.058;4.824;2023-03-31T02:48:26;19.40;;;7.20;;
74908;SDS011;63468;52.058;4.824;2023-03-31T02:50:58;16.13;;;7.10;;
74908;SDS011;63468;52.058;4.824;2023-03-31T02:56:40;22.52;;;14.27;;
74908;SDS011;63468;52.058;4.824;2023-03-31T02:59:19;24.80;;;16.55;;
74908;SDS011;63468;52.058;4.824;2023-03-31T03:02:17;19.88;;;14.57;;
74908;SDS011;63468;52.058;4.824;2023-03-31T03:07:45;27.73;;;14.73;;
74908;SDS011;63468;52.058;4.824;2023-03-31T03:10:26;29.15;;;15.63;;
74908;SDS011;63468;52.058;4.824;2023-03-31T03:12:56;24.63;;;14.60;;
74908;SDS011;63468;52.058;4.824;2023-03-31T03:15:29;27.88;;;14.13;;
74908;SDS011;63468;52.058;4.824;2023-03-31T03:17:57;21.08;;;16.35;;
74908;SDS011;63468;52.058;4.824;2023-03-31T03:20:22;22.55;;;16.33;;
74908;SDS011;63468;52.058;4.824;2023-03-31T03:22:48;21.13;;;13.73;;
74908;SDS011;63468;52.058;4.824;2023-03-31T03:25:14;23.88;;;15.18;;
74908;SDS011;63468;52.058;4.824;2023-03-31T03:27:41;22.02;;;15.02;;
74908;SDS011;63468;52.058;4.824;2023-03-31T03:30:07;20.83;;;17.13;;
74908;SDS011;63468;52.058;4.824;2023-03-31T03:32:34;23.38;;;21.00;;
74908;SDS011;63468;52.058;4.824;2023-03-31T03:35:00;21.42;;;19.23;;
74908;SDS011;63468;52.058;4.824;2023-03-31T03:37:26;21.00;;;18.85;;
74908;SDS011;63468;52.058;4.824;2023-03-31T03:39:51;23.73;;;21.33;;
74908;SDS011;63468;52.058;4.824;2023-03-31T03:42:17;24.02;;;21.25;;
74908;SDS011;63468;52.058;4.824;2023-03-31T03:44:42;23.55;;;21.02;;
74908;SDS011;63468;52.058;4.824;2023-03-31T03:47:07;26.90;;;20.60;;
74908;SDS011;63468;52.058;4.824;2023-03-31T03:49:33;33.20;;;30.63;;
74908;SDS011;63468;52.058;4.824;2023-03-31T03:51:58;25.27;;;19.08;;
74908;SDS011;63468;52.058;4.824;2023-03-31T03:54:25;31.48;;;28.95;;
74908;SDS011;63468;52.058;4.824;2023-03-31T03:56:50;26.88;;;22.90;;
74908;SDS011;63468;52.058;4.824;2023-03-31T03:59:15;29.55;;;26.92;;
74908;SDS011;63468;52.058;4.824;2023-03-31T04:01:40;25.98;;;23.10;;
74908;SDS011;63468;52.058;4.824;2023-03-31T04:04:06;19.98;;;18.05;;
74908;SDS011;63468;52.058;4.824;2023-03-31T04:06:31;25.88;;;23.25;;
74908;SDS011;63468;52.058;4.824;2023-03-31T04:08:56;26.05;;;23.67;;
74908;SDS011;63468;52.058;4.824;2023-03-31T04:11:22;28.45;;;25.50;;
74908;SDS011;63468;52.058;4.824;2023-03-31T04:13:47;25.23;;;22.67;;
74908;SDS011;63468;52.058;4.824;2023-03-31T04:16:13;30.75;;;28.02;;
74908;SDS011;63468;52.058;4.824;2023-03-31T04:18:38;28.55;;;25.65;;
74908;SDS011;63468;52.058;4.824;2023-03-31T04:21:12;21.48;;;19.42;;
74908;SDS011;63468;52.058;4.824;2023-03-31T04:23:47;22.92;;;19.05;;
74908;SDS011;63468;52.058;4.824;2023-03-31T04:26:14;23.30;;;20.83;;
74908;SDS011;63468;52.058;4.824;2023-03-31T04:28:40;22.73;;;20.73;;
74908;SDS011;63468;52.058;4.824;2023-03-31T04:31:14;22.42;;;19.05;;
74908;SDS011;63468;52.058;4.824;2023-03-31T04:33:48;31.67;;;29.30;;
74908;SDS011;63468;52.058;4.824;2023-03-31T04:36:14;29.52;;;26.77;;
74908;SDS011;63468;52.058;4.824;2023-03-31T04:38:44;27.85;;;24.55;;
74908;SDS011;63468;52.058;4.824;2023-03-31T04:41:11;25.77;;;23.02;;
74908;SDS011;63468;52.058;4.824;2023-03-31T04:43:37;27.85;;;25.27;;
74908;SDS011;63468;52.058;4.824;2023-03-31T04:46:03;23.63;;;21.17;;
74908;SDS011;63468;52.058;4.824;2023-03-31T04:48:28;26.05;;;23.88;;
74908;SDS011;63468;52.058;4.824;2023-03-31T04:50:53;28.67;;;25.73;;
74908;SDS011;63468;52.058;4.824;2023-03-31T04:53:19;21.17;;;18.98;;
74908;SDS011;63468;52.058;4.824;2023-03-31T04:55:44;19.98;;;17.98;;
74908;SDS011;63468;52.058;4.824;2023-03-31T04:58:09;27.15;;;24.58;;
74908;SDS011;63468;52.058;4.824;2023-03-31T05:00:35;32.97;;;30.17;;
74908;SDS011;63468;52.058;4.824;2023-03-31T05:03:00;28.27;;;25.63;;
74908;SDS011;63468;52.058;4.824;2023-03-31T05:05:25;27.55;;;25.38;;
74908;SDS011;63468;52.058;4.824;2023-03-31T05:07:51;27.60;;;24.67;;
74908;SDS011;63468;52.058;4.824;2023-03-31T05:10:16;22.70;;;20.88;;
74908;SDS011;63468;52.058;4.824;2023-03-31T05:12:41;26.13;;;23.90;;
74908;SDS011;63468;52.058;4.824;2023-03-31T05:15:07;27.88;;;25.92;;
74908;SDS011;63468;52.058;4.824;2023-03-31T05:17:33;22.63;;;20.50;;
74908;SDS011;63468;52.058;4.824;2023-03-31T05:19:59;19.48;;;16.13;;
74908;SDS011;63468;52.058;4.824;2023-03-31T05:22:25;20.42;;;18.52;;
74908;SDS011;63468;52.058;4.824;2023-03-31T05:24:50;25.90;;;23.67;;
74908;SDS011;63468;52.058;4.824;2023-03-31T05:27:16;20.52;;;17.00;;
74908;SDS011;63468;52.058;4.824;2023-03-31T05:29:41;27.45;;;25.20;;
74908;SDS011;63468;52.058;4.824;2023-03-31T05:32:06;27.35;;;25.27;;
74908;SDS011;63468;52.058;4.824;2023-03-31T05:34:32;18.63;;;16.92;;
74908;SDS011;63468;52.058;4.824;2023-03-31T05:36:57;21.05;;;19.45;;
74908;SDS011;63468;52.058;4.824;2023-03-31T05:39:22;26.17;;;24.48;;
74908;SDS011;63468;52.058;4.824;2023-03-31T05:41:48;23.15;;;21.25;;
74908;SDS011;63468;52.058;4.824;2023-03-31T05:44:13;22.95;;;20.75;;
74908;SDS011;63468;52.058;4.824;2023-03-31T05:46:39;20.70;;;19.15;;
74908;SDS011;63468;52.058;4.824;2023-03-31T05:49:05;21.95;;;19.75;;
74908;SDS011;63468;52.058;4.824;2023-03-31T05:51:31;26.77;;;24.80;;
74908;SDS011;63468;52.058;4.824;2023-03-31T05:53:56;30.95;;;28.40;;
74908;SDS011;63468;52.058;4.824;2023-03-31T05:56:21;30.48;;;28.58;;
74908;SDS011;63468;52.058;4.824;2023-03-31T05:58:46;27.50;;;25.48;;
74908;SDS011;63468;52.058;4.824;2023-03-31T06:01:13;19.75;;;17.98;;
74908;SDS011;63468;52.058;4.824;2023-03-31T06:03:43;21.73;;;19.85;;
74908;SDS011;63468;52.058;4.824;2023-03-31T06:06:09;27.48;;;25.67;;
74908;SDS011;63468;52.058;4.824;2023-03-31T06:08:37;27.33;;;25.20;;
74908;SDS011;63468;52.058;4.824;2023-03-31T06:11:03;24.38;;;22.23;;
74908;SDS011;63468;52.058;4.824;2023-03-31T06:13:30;21.50;;;19.63;;
74908;SDS011;63468;52.058;4.824;2023-03-31T06:15:56;20.45;;;18.75;;
74908;SDS011;63468;52.058;4.824;2023-03-31T06:18:23;19.45;;;17.05;;
74908;SDS011;63468;52.058;4.824;2023-03-31T06:20:49;23.75;;;22.00;;
74908;SDS011;63468;52.058;4.824;2023-03-31T06:23:15;29.13;;;27.17;;
74908;SDS011;63468;52.058;4.824;2023-03-31T06:25:40;27.10;;;25.08;;
74908;SDS011;63468;52.058;4.824;2023-03-31T06:28:05;27.30;;;25.42;;
74908;SDS011;63468;52.058;4.824;2023-03-31T06:30:31;23.23;;;21.55;;
74908;SDS011;63468;52.058;4.824;2023-03-31T06:32:57;20.15;;;18.67;;
74908;SDS011;63468;52.058;4.824;2023-03-31T06:35:22;28.42;;;26.45;;
74908;SDS011;63468;52.058;4.824;2023-03-31T06:37:47;26.00;;;23.85;;
74908;SDS011;63468;52.058;4.824;2023-03-31T06:40:13;20.20;;;18.67;;
74908;SDS011;63468;52.058;4.824;2023-03-31T06:42:38;26.77;;;24.70;;
74908;SDS011;63468;52.058;4.824;2023-03-31T06:45:03;27.08;;;25.00;;
74908;SDS011;63468;52.058;4.824;2023-03-31T06:47:29;25.13;;;23.10;;
74908;SDS011;63468;52.058;4.824;2023-03-31T06:49:54;26.50;;;24.70;;
74908;SDS011;63468;52.058;4.824;2023-03-31T06:52:20;28.02;;;26.23;;
74908;SDS011;63468;52.058;4.824;2023-03-31T06:54:45;30.42;;;28.33;;
74908;SDS011;63468;52.058;4.824;2023-03-31T06:57:11;26.35;;;24.45;;
74908;SDS011;63468;52.058;4.824;2023-03-31T06:59:36;27.63;;;25.27;;
74908;SDS011;63468;52.058;4.824;2023-03-31T07:02:02;23.38;;;21.75;;
74908;SDS011;63468;52.058;4.824;2023-03-31T07:04:27;20.73;;;19.15;;
74908;SDS011;63468;52.058;4.824;2023-03-31T07:06:52;31.90;;;28.48;;
74908;SDS011;63468;52.058;4.824;2023-03-31T07:09:18;27.02;;;24.98;;
74908;SDS011;63468;52.058;4.824;2023-03-31T07:11:45;27.02;;;24.73;;
74908;SDS011;63468;52.058;4.824;2023-03-31T07:14:11;41.58;;;30.17;;
74908;SDS011;63468;52.058;4.824;2023-03-31T07:16:36;23.30;;;21.50;;
74908;SDS011;63468;52.058;4.824;2023-03-31T07:19:01;24.73;;;22.98;;
74908;SDS011;63468;52.058;4.824;2023-03-31T07:21:27;25.05;;;23.05;;
74908;SDS011;63468;52.058;4.824;2023-03-31T07:23:53;25.35;;;22.65;;
74908;SDS011;63468;52.058;4.824;2023-03-31T07:26:18;28.58;;;26.60;;
74908;SDS011;63468;52.058;4.824;2023-03-31T07:28:43;23.55;;;21.85;;
74908;SDS011;63468;52.058;4.824;2023-03-31T07:31:09;25.30;;;23.45;;
74908;SDS011;63468;52.058;4.824;2023-03-31T07:33:35;23.10;;;21.60;;
74908;SDS011;63468;52.058;4.824;2023-03-31T07:36:03;27.33;;;25.40;;
74908;SDS011;63468;52.058;4.824;2023-03-31T07:38:29;24.40;;;22.35;;
74908;SDS011;63468;52.058;4.824;2023-03-31T07:40:55;23.77;;;22.05;;
74908;SDS011;63468;52.058;4.824;2023-03-31T07:43:20;30.40;;;28.50;;
74908;SDS011;63468;52.058;4.824;2023-03-31T07:45:45;27.77;;;25.85;;
74908;SDS011;63468;52.058;4.824;2023-03-31T07:48:10;28.30;;;26.17;;
74908;SDS011;63468;52.058;4.824;2023-03-31T07:50:36;33.67;;;31.52;;
74908;SDS011;63468;52.058;4.824;2023-03-31T07:53:01;33.47;;;30.33;;
74908;SDS011;63468;52.058;4.824;2023-03-31T07:55:27;28.08;;;26.02;;
74908;SDS011;63468;52.058;4.824;2023-03-31T07:57:52;31.63;;;29.13;;
74908;SDS011;63468;52.058;4.824;2023-03-31T08:00:18;24.60;;;22.70;;
74908;SDS011;63468;52.058;4.824;2023-03-31T08:02:43;25.48;;;23.45;;
74908;SDS011;63468;52.058;4.824;2023-03-31T08:05:12;26.63;;;24.33;;
74908;SDS011;63468;52.058;4.824;2023-03-31T08:07:39;28.05;;;25.75;;
74908;SDS011;63468;52.058;4.824;2023-03-31T08:10:07;30.70;;;27.48;;
74908;SDS011;63468;52.058;4.824;2023-03-31T08:12:33;26.23;;;22.88;;
74908;SDS011;63468;52.058;4.824;2023-03-31T08:14:59;27.60;;;24.83;;
74908;SDS011;63468;52.058;4.824;2023-03-31T08:17:25;25.50;;;22.95;;
74908;SDS011;63468;52.058;4.824;2023-03-31T08:19:50;32.30;;;28.90;;
74908;SDS011;63468;52.058;4.824;2023-03-31T08:22:16;31.48;;;28.10;;
74908;SDS011;63468;52.058;4.824;2023-03-31T08:24:41;35.30;;;31.85;;
74908;SDS011;63468;52.058;4.824;2023-03-31T08:27:07;33.88;;;30.73;;
74908;SDS011;63468;52.058;4.824;2023-03-31T08:29:32;31.15;;;28.58;;
74908;SDS011;63468;52.058;4.824;2023-03-31T08:31:58;32.88;;;30.05;;
74908;SDS011;63468;52.058;4.824;2023-03-31T08:34:23;24.00;;;21.90;;
74908;SDS011;63468;52.058;4.824;2023-03-31T08:36:48;22.48;;;20.30;;
74908;SDS011;63468;52.058;4.824;2023-03-31T08:39:14;26.13;;;23.52;;
74908;SDS011;63468;52.058;4.824;2023-03-31T08:44:25;25.30;;;22.92;;
74908;SDS011;63468;52.058;4.824;2023-03-31T08:49:26;26.52;;;24.40;;
74908;SDS011;63468;52.058;4.824;2023-03-31T08:51:57;23.85;;;19.75;;
74908;SDS011;63468;52.058;4.824;2023-03-31T08:54:30;27.90;;;24.92;;
74908;SDS011;63468;52.058;4.824;2023-03-31T08:56:58;27.63;;;20.48;;
74908;SDS011;63468;52.058;4.824;2023-03-31T08:59:31;24.75;;;21.83;;
74908;SDS011;63468;52.058;4.824;2023-03-31T09:02:20;22.90;;;18.13;;
74908;SDS011;63468;52.058;4.824;2023-03-31T09:10:19;20.95;;;17.75;;
74908;SDS011;63468;52.058;4.824;2023-03-31T09:18:28;29.95;;;19.92;;
74908;SDS011;63468;52.058;4.824;2023-03-31T09:21:03;26.38;;;18.95;;
74908;SDS011;63468;52.058;4.824;2023-03-31T09:23:35;21.45;;;18.60;;
74908;SDS011;63468;52.058;4.824;2023-03-31T09:26:05;21.75;;;16.45;;
74908;SDS011;63468;52.058;4.824;2023-03-31T09:28:37;19.60;;;17.67;;
74908;SDS011;63468;52.058;4.824;2023-03-31T09:31:07;21.67;;;19.15;;
74908;SDS011;63468;52.058;4.824;2023-03-31T09:33:37;19.88;;;16.48;;
74908;SDS011;63468;52.058;4.824;2023-03-31T09:36:13;20.95;;;18.83;;
74908;SDS011;63468;52.058;4.824;2023-03-31T09:38:41;20.65;;;16.27;;
74908;SDS011;63468;52.058;4.824;2023-03-31T09:41:07;21.45;;;16.35;;
74908;SDS011;63468;52.058;4.824;2023-03-31T09:43:33;25.33;;;17.08;;
74908;SDS011;63468;52.058;4.824;2023-03-31T09:46:02;18.55;;;15.85;;
74908;SDS011;63468;52.058;4.824;2023-03-31T09:48:29;19.98;;;16.23;;
74908;SDS011;63468;52.058;4.824;2023-03-31T09:56:02;20.73;;;17.55;;
74908;SDS011;63468;52.058;4.824;2023-03-31T09:58:29;22.05;;;15.68;;
74908;SDS011;63468;52.058;4.824;2023-03-31T10:01:04;21.02;;;16.42;;
74908;SDS011;63468;52.058;4.824;2023-03-31T10:03:30;38.15;;;21.63;;
74908;SDS011;63468;52.058;4.824;2023-03-31T10:06:01;22.75;;;17.52;;
74908;SDS011;63468;52.058;4.824;2023-03-31T10:08:37;28.13;;;19.45;;
74908;SDS011;63468;52.058;4.824;2023-03-31T10:16:09;19.42;;;15.60;;
74908;SDS011;63468;52.058;4.824;2023-03-31T10:18:38;18.75;;;15.45;;
74908;SDS011;63468;52.058;4.824;2023-03-31T10:21:05;18.58;;;16.67;;
74908;SDS011;63468;52.058;4.824;2023-03-31T10:23:34;17.27;;;15.50;;
74908;SDS011;63468;52.058;4.824;2023-03-31T10:26:01;18.25;;;15.93;;
74908;SDS011;63468;52.058;4.824;2023-03-31T10:28:30;25.08;;;15.55;;
74908;SDS011;63468;52.058;4.824;2023-03-31T10:30:57;19.92;;;16.05;;
74908;SDS011;63468;52.058;4.824;2023-03-31T10:33:30;17.40;;;15.35;;
74908;SDS011;63468;52.058;4.824;2023-03-31T10:35:59;18.63;;;15.00;;
74908;SDS011;63468;52.058;4.824;2023-03-31T10:38:36;21.50;;;16.13;;
74908;SDS011;63468;52.058;4.824;2023-03-31T10:41:04;22.10;;;15.50;;
74908;SDS011;63468;52.058;4.824;2023-03-31T10:43:36;18.75;;;13.75;;
74908;SDS011;63468;52.058;4.824;2023-03-31T10:46:04;18.10;;;14.38;;
74908;SDS011;63468;52.058;4.824;2023-03-31T10:48:31;20.17;;;14.50;;
74908;SDS011;63468;52.058;4.824;2023-03-31T10:50:59;19.17;;;14.68;;
74908;SDS011;63468;52.058;4.824;2023-03-31T10:53:42;23.98;;;15.10;;
74908;SDS011;63468;52.058;4.824;2023-03-31T10:58:41;21.27;;;14.25;;
74908;SDS011;63468;52.058;4.824;2023-03-31T11:03:54;20.35;;;16.90;;
74908;SDS011;63468;52.058;4.824;2023-03-31T11:06:32;18.20;;;15.88;;
74908;SDS011;63468;52.058;4.824;2023-03-31T11:09:14;20.58;;;14.95;;
74908;SDS011;63468;52.058;4.824;2023-03-31T11:14:26;23.45;;;16.80;;
74908;SDS011;63468;52.058;4.824;2023-03-31T11:19:33;17.75;;;15.93;;
74908;SDS011;63468;52.058;4.824;2023-03-31T11:24:54;20.80;;;15.98;;
74908;SDS011;63468;52.058;4.824;2023-03-31T11:27:40;17.67;;;16.00;;
74908;SDS011;63468;52.058;4.824;2023-03-31T11:30:22;23.63;;;17.27;;
74908;SDS011;63468;52.058;4.824;2023-03-31T11:32:57;19.10;;;16.98;;
74908;SDS011;63468;52.058;4.824;2023-03-31T11:38:12;17.63;;;15.77;;
74908;SDS011;63468;52.058;4.824;2023-03-31T11:43:33;16.70;;;15.00;;
74908;SDS011;63468;52.058;4.824;2023-03-31T11:46:02;16.27;;;14.80;;
74908;SDS011;63468;52.058;4.824;2023-03-31T11:51:13;16.30;;;14.68;;
74908;SDS011;63468;52.058;4.824;2023-03-31T11:53:40;15.65;;;14.38;;
74908;SDS011;63468;52.058;4.824;2023-03-31T11:56:07;16.88;;;15.23;;
74908;SDS011;63468;52.058;4.824;2023-03-31T11:58:36;16.23;;;14.63;;
74908;SDS011;63468;52.058;4.824;2023-03-31T12:01:17;16.90;;;15.50;;
74908;SDS011;63468;52.058;4.824;2023-03-31T12:06:28;17.15;;;15.85;;
74908;SDS011;63468;52.058;4.824;2023-03-31T12:09:20;16.67;;;14.85;;
74908;SDS011;63468;52.058;4.824;2023-03-31T12:12:12;16.15;;;14.70;;
74908;SDS011;63468;52.058;4.824;2023-03-31T12:14:48;17.63;;;15.75;;
74908;SDS011;63468;52.058;4.824;2023-03-31T12:17:16;16.55;;;15.10;;
74908;SDS011;63468;52.058;4.824;2023-03-31T12:20:03;15.02;;;13.50;;
74908;SDS011;63468;52.058;4.824;2023-03-31T12:22:43;16.70;;;14.98;;
74908;SDS011;63468;52.058;4.824;2023-03-31T12:25:13;16.98;;;15.23;;
74908;SDS011;63468;52.058;4.824;2023-03-31T12:27:43;18.13;;;16.52;;
74908;SDS011;63468;52.058;4.824;2023-03-31T12:30:25;16.48;;;14.60;;
74908;SDS011;63468;52.058;4.824;2023-03-31T12:33:11;16.55;;;15.05;;
74908;SDS011;63468;52.058;4.824;2023-03-31T12:38:18;18.15;;;15.68;;
74908;SDS011;63468;52.058;4.824;2023-03-31T12:43:54;21.17;;;15.93;;
74908;SDS011;63468;52.058;4.824;2023-03-31T12:49:23;16.40;;;15.10;;
74908;SDS011;63468;52.058;4.824;2023-03-31T12:52:14;18.23;;;16.55;;
74908;SDS011;63468;52.058;4.824;2023-03-31T12:54:54;17.38;;;15.68;;
74908;SDS011;63468;52.058;4.824;2023-03-31T12:57:25;17.25;;;15.52;;
74908;SDS011;63468;52.058;4.824;2023-03-31T13:02:34;20.17;;;16.23;;
74908;SDS011;63468;52.058;4.824;2023-03-31T13:04:59;16.48;;;14.88;;
74908;SDS011;63468;52.058;4.824;2023-03-31T13:08:08;17.05;;;14.52;;
74908;SDS011;63468;52.058;4.824;2023-03-31T13:13:20;16.17;;;14.65;;
74908;SDS011;63468;52.058;4.824;2023-03-31T13:15:49;16.63;;;15.02;;
74908;SDS011;63468;52.058;4.824;2023-03-31T13:18:17;16.10;;;14.65;;
74908;SDS011;63468;52.058;4.824;2023-03-31T13:20:44;16.98;;;15.63;;
74908;SDS011;63468;52.058;4.824;2023-03-31T13:25:42;16.00;;;14.38;;
74908;SDS011;63468;52.058;4.824;2023-03-31T13:28:10;15.65;;;14.18;;
74908;SDS011;63468;52.058;4.824;2023-03-31T13:33:07;17.02;;;15.27;;
74908;SDS011;63468;52.058;4.824;2023-03-31T13:35:37;15.98;;;14.25;;
74908;SDS011;63468;52.058;4.824;2023-03-31T13:38:07;15.15;;;13.73;;
74908;SDS011;63468;52.058;4.824;2023-03-31T13:49:19;17.90;;;15.63;;
74908;SDS011;63468;52.058;4.824;2023-03-31T13:51:58;26.13;;;17.77;;
74908;SDS011;63468;52.058;4.824;2023-03-31T14:05:54;24.25;;;19.58;;
74908;SDS011;63468;52.058;4.824;2023-03-31T14:10:55;18.38;;;15.27;;
74908;SDS011;63468;52.058;4.824;2023-03-31T14:13:42;17.20;;;15.70;;
74908;SDS011;63468;52.058;4.824;2023-03-31T14:16:08;19.38;;;17.60;;
74908;SDS011;63468;52.058;4.824;2023-03-31T14:18:34;17.95;;;16.15;;
74908;SDS011;63468;52.058;4.824;2023-03-31T14:21:07;17.73;;;16.52;;
74908;SDS011;63468;52.058;4.824;2023-03-31T14:23:56;14.20;;;13.00;;
74908;SDS011;63468;52.058;4.824;2023-03-31T14:29:24;14.55;;;13.25;;
74908;SDS011;63468;52.058;4.824;2023-03-31T14:32:10;14.40;;;13.13;;
74908;SDS011;63468;52.058;4.824;2023-03-31T14:34:51;14.70;;;13.25;;
74908;SDS011;63468;52.058;4.824;2023-03-31T14:37:19;17.73;;;16.02;;
74908;SDS011;63468;52.058;4.824;2023-03-31T14:39:47;18.30;;;16.75;;
74908;SDS011;63468;52.058;4.824;2023-03-31T14:42:16;15.35;;;14.25;;
74908;SDS011;63468;52.058;4.824;2023-03-31T14:44:43;16.08;;;14.57;;
74908;SDS011;63468;52.058;4.824;2023-03-31T14:47:22;15.98;;;14.50;;
74908;SDS011;63468;52.058;4.824;2023-03-31T14:49:58;16.52;;;15.18;;
74908;SDS011;63468;52.058;4.824;2023-03-31T14:52:27;17.42;;;16.02;;
74908;SDS011;63468;52.058;4.824;2023-03-31T14:54:54;18.05;;;15.85;;
74908;SDS011;63468;52.058;4.824;2023-03-31T14:57:22;18.83;;;17.15;;
74908;SDS011;63468;52.058;4.824;2023-03-31T14:59:52;19.27;;;17.80;;
74908;SDS011;63468;52.058;4.824;2023-03-31T15:02:19;16.33;;;14.93;;
74908;SDS011;63468;52.058;4.824;2023-03-31T15:04:54;18.70;;;17.30;;
74908;SDS011;63468;52.058;4.824;2023-03-31T15:07:20;19.40;;;17.65;;
74908;SDS011;63468;52.058;4.824;2023-03-31T15:09:47;17.15;;;15.60;;
74908;SDS011;63468;52.058;4.824;2023-03-31T15:12:14;18.77;;;16.85;;
74908;SDS011;63468;52.058;4.824;2023-03-31T15:14:44;19.30;;;17.80;;
74908;SDS011;63468;52.058;4.824;2023-03-31T15:17:21;19.33;;;17.75;;
74908;SDS011;63468;52.058;4.824;2023-03-31T15:19:55;18.15;;;16.83;;
74908;SDS011;63468;52.058;4.824;2023-03-31T15:22:23;19.10;;;17.60;;
74908;SDS011;63468;52.058;4.824;2023-03-31T15:24:50;20.23;;;18.85;;
74908;SDS011;63468;52.058;4.824;2023-03-31T15:30:02;17.52;;;16.23;;
74908;SDS011;63468;52.058;4.824;2023-03-31T15:32:30;20.60;;;19.13;;
74908;SDS011;63468;52.058;4.824;2023-03-31T15:34:59;19.20;;;17.90;;
74908;SDS011;63468;52.058;4.824;2023-03-31T15:37:49;18.88;;;17.55;;
74908;SDS011;63468;52.058;4.824;2023-03-31T15:40:19;20.15;;;18.50;;
74908;SDS011;63468;52.058;4.824;2023-03-31T15:42:46;18.83;;;17.33;;
74908;SDS011;63468;52.058;4.824;2023-03-31T15:45:23;20.85;;;16.70;;
74908;SDS011;63468;52.058;4.824;2023-03-31T15:48:03;18.98;;;17.48;;
74908;SDS011;63468;52.058;4.824;2023-03-31T15:50:28;18.08;;;16.65;;
74908;SDS011;63468;52.058;4.824;2023-03-31T15:52:54;21.55;;;19.92;;
74908;SDS011;63468;52.058;4.824;2023-03-31T15:57:47;18.40;;;17.10;;
74908;SDS011;63468;52.058;4.824;2023-03-31T16:03:16;19.10;;;17.60;;
74908;SDS011;63468;52.058;4.824;2023-03-31T16:05:55;20.25;;;18.83;;
74908;SDS011;63468;52.058;4.824;2023-03-31T16:11:06;19.48;;;17.95;;
74908;SDS011;63468;52.058;4.824;2023-03-31T16:13:36;17.80;;;16.30;;
74908;SDS011;63468;52.058;4.824;2023-03-31T16:16:06;21.10;;;19.80;;
74908;SDS011;63468;52.058;4.824;2023-03-31T16:18:34;19.02;;;17.65;;
74908;SDS011;63468;52.058;4.824;2023-03-31T16:21:02;19.98;;;18.55;;
74908;SDS011;63468;52.058;4.824;2023-03-31T16:23:30;17.80;;;16.27;;
74908;SDS011;63468;52.058;4.824;2023-03-31T16:25:57;18.92;;;17.38;;
74908;SDS011;63468;52.058;4.824;2023-03-31T16:28:32;15.55;;;14.10;;
74908;SDS011;63468;52.058;4.824;2023-03-31T16:31:00;22.50;;;21.10;;
74908;SDS011;63468;52.058;4.824;2023-03-31T16:33:26;16.20;;;14.80;;
74908;SDS011;63468;52.058;4.824;2023-03-31T16:35:52;22.38;;;19.98;;
74908;SDS011;63468;52.058;4.824;2023-03-31T16:38:21;18.83;;;17.23;;
74908;SDS011;63468;52.058;4.824;2023-03-31T16:40:48;18.50;;;17.10;;
74908;SDS011;63468;52.058;4.824;2023-03-31T16:43:16;18.60;;;16.95;;
74908;SDS011;63468;52.058;4.824;2023-03-31T16:45:49;19.92;;;18.48;;
74908;SDS011;63468;52.058;4.824;2023-03-31T16:48:19;22.35;;;20.67;;
74908;SDS011;63468;52.058;4.824;2023-03-31T16:50:47;22.27;;;20.63;;
74908;SDS011;63468;52.058;4.824;2023-03-31T16:53:16;23.23;;;21.38;;
74908;SDS011;63468;52.058;4.824;2023-03-31T16:55:42;22.15;;;20.55;;
74908;SDS011;63468;52.058;4.824;2023-03-31T16:58:08;20.02;;;18.10;;
74908;SDS011;63468;52.058;4.824;2023-03-31T17:00:34;17.77;;;16.48;;